createdAt,value
2023-05-10T00:02:34.129Z,5.1
2023-05-10T00:05:34.085Z,5.1
2023-05-10T00:08:34.079Z,5.1
2023-05-10T00:11:34.083Z,5.1
2023-05-10T00:14:34.100Z,5.1
2023-05-10T00:17:34.089Z,5.1
2023-05-10T00:20:34.074Z,5.1
2023-05-10T00:23:34.094Z,5.2
2023-05-10T00:26:34.088Z,5.1
2023-05-10T00:29:34.087Z,5.1
2023-05-10T00:32:34.125Z,5.2
2023-05-10T00:35:34.102Z,5.1
2023-05-10T00:38:34.097Z,5.1
2023-05-10T00:41:34.097Z,5.1
2023-05-10T00:44:34.097Z,5.2
2023-05-10T00:47:34.102Z,5.2
2023-05-10T00:50:34.091Z,5.1
2023-05-10T00:53:34.096Z,5.1
2023-05-10T00:56:34.093Z,5.2
2023-05-10T00:59:34.099Z,5.2
2023-05-10T01:02:34.206Z,5.2
2023-05-10T01:05:34.117Z,5.2
2023-05-10T01:08:34.115Z,5.1
2023-05-10T01:11:34.113Z,5.1
2023-05-10T01:14:34.105Z,5.1
2023-05-10T01:17:34.127Z,5.1
2023-05-10T01:20:34.112Z,5
2023-05-10T01:23:34.111Z,5
2023-05-10T01:26:34.126Z,5.1
2023-05-10T01:29:34.112Z,5.1
2023-05-10T01:32:34.139Z,5
2023-05-10T01:35:34.131Z,5.1
2023-05-10T01:38:34.126Z,5.1
2023-05-10T01:41:34.118Z,5.1
2023-05-10T01:44:34.113Z,5.1
2023-05-10T01:47:34.158Z,5.2
2023-05-10T01:50:34.113Z,5.2
2023-05-10T01:53:34.121Z,5.2
2023-05-10T01:56:34.122Z,5.2
2023-05-10T01:59:34.128Z,5.2
2023-05-10T02:02:34.152Z,5.2
2023-05-10T02:05:34.126Z,5.2
2023-05-10T02:08:34.126Z,5.2
2023-05-10T02:11:34.132Z,5.2
2023-05-10T02:14:34.134Z,5.2
2023-05-10T02:17:34.320Z,5.3
2023-05-10T02:20:34.131Z,5.3
2023-05-10T02:23:34.146Z,5.3
2023-05-10T02:26:34.134Z,5.3
2023-05-10T02:29:34.143Z,5.3
2023-05-10T02:32:34.153Z,5.3
2023-05-10T02:35:34.135Z,5.3
2023-05-10T02:38:34.143Z,5.3
2023-05-10T02:41:34.150Z,5.4
2023-05-10T02:44:34.159Z,5.4
2023-05-10T02:47:34.205Z,5.4
2023-05-10T02:50:34.149Z,5.4
2023-05-10T02:53:34.151Z,5.4
2023-05-10T02:56:34.153Z,5.4
2023-05-10T02:59:34.157Z,5.4
2023-05-10T03:02:34.193Z,5.4
2023-05-10T03:05:34.159Z,5.4
2023-05-10T03:08:34.158Z,5.4
2023-05-10T03:11:34.166Z,5.5
2023-05-10T03:14:34.161Z,5.4
2023-05-10T03:17:34.241Z,5.5
2023-05-10T03:20:34.166Z,5.5
2023-05-10T03:23:34.174Z,5.6
2023-05-10T03:26:34.176Z,5.6
2023-05-10T03:29:34.177Z,5.6
2023-05-10T03:32:34.216Z,5.6
2023-05-10T03:35:34.181Z,5.6
2023-05-10T03:38:34.179Z,5.6
2023-05-10T03:41:34.179Z,5.6
2023-05-10T03:44:34.240Z,5.6
2023-05-10T03:47:34.205Z,5.6
2023-05-10T03:50:34.201Z,5.6
2023-05-10T03:53:34.186Z,5.6
2023-05-10T03:56:34.184Z,5.7
2023-05-10T03:59:34.193Z,5.6
2023-05-10T04:02:34.319Z,5.7
2023-05-10T04:05:34.187Z,5.7
2023-05-10T04:08:34.192Z,5.7
2023-05-10T04:11:34.199Z,5.7
2023-05-10T04:14:34.197Z,5.8
2023-05-10T04:17:34.206Z,5.7
2023-05-10T04:20:34.495Z,5.8
2023-05-10T04:23:34.198Z,5.8
2023-05-10T04:26:34.204Z,5.9
2023-05-10T04:29:34.206Z,5.9
2023-05-10T04:32:34.272Z,5.9
2023-05-10T04:35:34.310Z,5.9
2023-05-10T04:38:34.220Z,5.9
2023-05-10T04:41:34.210Z,6
2023-05-10T04:44:34.214Z,6
2023-05-10T04:47:34.218Z,6
2023-05-10T04:50:34.525Z,6.1
2023-05-10T04:53:34.236Z,6.2
2023-05-10T04:56:34.262Z,6.2
2023-05-10T04:59:34.242Z,6.3
2023-05-10T05:02:34.283Z,6.4
2023-05-10T05:05:34.234Z,6.4
2023-05-10T05:08:34.236Z,6.5
2023-05-10T05:11:34.242Z,6.6
2023-05-10T05:14:34.239Z,6.7
2023-05-10T05:17:34.275Z,6.7
2023-05-10T05:20:34.250Z,6.8
2023-05-10T05:23:34.260Z,6.9
2023-05-10T05:26:34.255Z,6.8
2023-05-10T05:29:34.269Z,6.9
2023-05-10T05:32:34.281Z,7
2023-05-10T05:35:34.254Z,7.2
2023-05-10T05:38:34.248Z,7.1
2023-05-10T05:41:34.260Z,7.1
2023-05-10T05:44:34.258Z,7.1
2023-05-10T05:47:34.278Z,7
2023-05-10T05:50:34.266Z,6.9
2023-05-10T05:53:34.275Z,7
2023-05-10T05:56:34.274Z,7
2023-05-10T05:59:34.270Z,6.9
2023-05-10T06:02:34.433Z,6.8
2023-05-10T06:05:34.290Z,6.7
2023-05-10T06:08:34.285Z,6.8
2023-05-10T06:11:34.296Z,6.8
2023-05-10T06:14:34.288Z,6.8
2023-05-10T06:17:34.316Z,6.8
2023-05-10T06:20:34.307Z,6.8
2023-05-10T06:23:34.305Z,6.8
2023-05-10T06:26:34.300Z,6.8
2023-05-10T06:29:34.304Z,6.9
2023-05-10T06:32:34.334Z,7
2023-05-10T06:35:34.319Z,7
2023-05-10T06:38:34.312Z,7.1
2023-05-10T06:41:34.316Z,7.1
2023-05-10T06:44:34.312Z,7.2
2023-05-10T06:47:35.866Z,7.2
2023-05-10T06:50:34.341Z,7.2
2023-05-10T06:53:34.324Z,7.3
2023-05-10T06:56:34.331Z,7.3
2023-05-10T06:59:34.345Z,7.3
2023-05-10T07:02:34.354Z,7.3
2023-05-10T07:05:34.352Z,7.2
2023-05-10T07:08:34.348Z,7.3
2023-05-10T07:11:34.347Z,7.4
2023-05-10T07:14:34.353Z,7.4
2023-05-10T07:17:34.523Z,7.6
2023-05-10T07:20:34.358Z,7.7
2023-05-10T07:23:34.365Z,7.6
2023-05-10T07:26:34.363Z,7.8
2023-05-10T07:29:34.365Z,7.8
2023-05-10T07:32:34.446Z,7.7
2023-05-10T07:35:34.368Z,7.8
2023-05-10T07:38:34.382Z,7.7
2023-05-10T07:41:35.801Z,7.7
2023-05-10T07:44:34.378Z,7.8
2023-05-10T07:47:34.427Z,7.9
2023-05-10T07:50:34.388Z,7.9
2023-05-10T07:53:34.434Z,8.3
2023-05-10T07:56:34.405Z,8.4
2023-05-10T07:59:34.402Z,8.6
2023-05-10T08:02:34.504Z,8.5
2023-05-10T08:05:35.746Z,8.4
2023-05-10T08:08:34.406Z,8.5
2023-05-10T08:11:35.199Z,8.5
2023-05-10T08:14:34.404Z,8.7
2023-05-10T08:17:34.419Z,8.7
2023-05-10T08:20:34.418Z,8.9
2023-05-10T08:23:34.425Z,8.9
2023-05-10T08:26:34.421Z,8.9
2023-05-10T08:29:42.560Z,9.1
2023-05-10T08:32:34.467Z,9.1
2023-05-10T08:35:34.446Z,9.2
2023-05-10T08:38:34.425Z,9.2
2023-05-10T08:41:34.443Z,9.3
2023-05-10T08:44:34.472Z,9.2
2023-05-10T08:47:34.455Z,9.3
2023-05-10T08:50:34.443Z,9.8
2023-05-10T08:53:34.445Z,9.9
2023-05-10T08:56:34.454Z,10
2023-05-10T08:59:34.443Z,10.1
2023-05-10T09:02:34.485Z,10.1
2023-05-10T09:05:34.461Z,10.3
2023-05-10T09:08:34.458Z,10.4
2023-05-10T09:11:34.461Z,10.6
2023-05-10T09:14:34.616Z,10.8
2023-05-10T09:17:34.508Z,10.9
2023-05-10T09:20:34.460Z,11.1
2023-05-10T09:23:34.467Z,11.2
2023-05-10T09:26:34.465Z,11.6
2023-05-10T09:29:34.466Z,11.7
2023-05-10T09:32:34.489Z,11.8
2023-05-10T09:35:34.497Z,12.1
2023-05-10T09:38:34.478Z,12
2023-05-10T09:41:34.479Z,11.9
2023-05-10T09:44:34.496Z,11.9
2023-05-10T09:47:34.514Z,12
2023-05-10T09:50:34.487Z,12.1
2023-05-10T09:53:34.486Z,12.3
2023-05-10T09:56:34.495Z,12.4
2023-05-10T09:59:34.495Z,12.4
2023-05-10T10:02:34.532Z,12.4
2023-05-10T10:05:34.507Z,12.4
2023-05-10T10:08:34.516Z,12.3
2023-05-10T10:11:34.508Z,12.2
2023-05-10T10:14:34.512Z,12.3
2023-05-10T10:17:34.525Z,12.3
2023-05-10T10:20:34.532Z,12.3
2023-05-10T10:23:34.512Z,12.6
2023-05-10T10:26:34.520Z,12.9
2023-05-10T10:29:34.527Z,12.8
2023-05-10T10:32:34.572Z,12.9
2023-05-10T10:35:34.542Z,13.3
2023-05-10T10:38:34.536Z,13.3
2023-05-10T10:41:34.544Z,13.4
2023-05-10T10:44:34.579Z,13.6
2023-05-10T10:47:34.598Z,13.6
2023-05-10T10:50:34.554Z,13.6
2023-05-10T10:53:34.549Z,13.4
2023-05-10T10:56:36.485Z,13.3
2023-05-10T10:59:34.565Z,13.4
2023-05-10T11:02:34.604Z,13.3
2023-05-10T11:05:34.563Z,13.4
2023-05-10T11:08:36.392Z,13.2
2023-05-10T11:11:34.569Z,13.1
2023-05-10T11:14:34.580Z,13.1
2023-05-10T11:17:34.588Z,13.1
2023-05-10T11:20:34.584Z,13.2
2023-05-10T11:23:34.588Z,13.2
2023-05-10T11:26:34.636Z,13.2
2023-05-10T11:29:34.821Z,13.2
2023-05-10T11:32:34.612Z,13.3
2023-05-10T11:35:34.607Z,13.3
2023-05-10T11:38:34.614Z,13.4
2023-05-10T11:41:34.654Z,13.3
2023-05-10T11:44:34.624Z,13.4
2023-05-10T11:47:34.647Z,13.4
2023-05-10T11:50:34.630Z,13.4
2023-05-10T11:53:34.631Z,13.3
2023-05-10T11:56:34.631Z,13.3
2023-05-10T11:59:34.642Z,13.5
2023-05-10T12:02:34.715Z,13.6
2023-05-10T12:05:34.649Z,13.6
2023-05-10T12:08:34.655Z,13.6
2023-05-10T12:11:34.657Z,13.8
2023-05-10T12:14:34.653Z,13.6
2023-05-10T12:17:34.674Z,13.4
2023-05-10T12:20:34.662Z,13.3
2023-05-10T12:23:34.675Z,13.3
2023-05-10T12:26:34.672Z,13
2023-05-10T12:29:34.685Z,12.8
2023-05-10T12:32:34.680Z,12.6
2023-05-10T12:35:34.699Z,12.5
2023-05-10T12:38:34.696Z,12.8
2023-05-10T12:41:34.716Z,13
2023-05-10T12:44:34.690Z,13.1
2023-05-10T12:47:34.713Z,13.2
2023-05-10T12:50:34.713Z,13.4
2023-05-10T12:53:34.715Z,13.5
2023-05-10T12:56:34.716Z,13.4
2023-05-10T12:59:35.996Z,13.6
2023-05-10T13:02:34.725Z,13.7
2023-05-10T13:05:34.733Z,13.6
2023-05-10T13:08:34.842Z,13.6
2023-05-10T13:11:34.744Z,13.6
2023-05-10T13:14:34.739Z,13.6
2023-05-10T13:17:34.765Z,13.6
2023-05-10T13:20:34.747Z,13.6
2023-05-10T13:23:34.753Z,13.7
2023-05-10T13:26:34.761Z,13.8
2023-05-10T13:29:34.760Z,13.8
2023-05-10T13:32:34.787Z,14
2023-05-10T13:35:34.770Z,14
2023-05-10T13:38:34.784Z,13.8
2023-05-10T13:41:34.786Z,13.4
2023-05-10T13:44:34.810Z,13.5
2023-05-10T13:47:34.821Z,13.8
2023-05-10T13:50:34.811Z,13.6
2023-05-10T13:53:34.811Z,13.5
2023-05-10T13:56:34.820Z,13.8
2023-05-10T13:59:34.820Z,13.9
2023-05-10T14:02:34.890Z,13.9
2023-05-10T14:05:34.838Z,14
2023-05-10T14:08:34.842Z,13.9
2023-05-10T14:11:34.851Z,14
2023-05-10T14:14:34.866Z,14
2023-05-10T14:17:34.876Z,14
2023-05-10T14:20:34.894Z,14
2023-05-10T14:23:34.884Z,13.8
2023-05-10T14:26:34.884Z,13.8
2023-05-10T14:29:34.893Z,13.5
2023-05-10T14:32:34.913Z,13.6
2023-05-10T14:35:34.901Z,13.3
2023-05-10T14:38:34.907Z,13.4
2023-05-10T14:41:34.911Z,13.6
2023-05-10T14:44:34.929Z,13.5
2023-05-10T14:47:34.959Z,13.6
2023-05-10T14:50:36.347Z,13.4
2023-05-10T14:53:34.963Z,13.5
2023-05-10T14:56:34.960Z,13.7
2023-05-10T14:59:34.961Z,13.9
2023-05-10T15:02:34.984Z,13.6
2023-05-10T15:05:34.975Z,13.3
2023-05-10T15:08:34.977Z,13.1
2023-05-10T15:11:34.986Z,13.3
2023-05-10T15:14:34.993Z,13.2
2023-05-10T15:17:35.050Z,13
2023-05-10T15:20:35.010Z,12.9
2023-05-10T15:23:35.024Z,12.9
2023-05-10T15:26:35.019Z,13
2023-05-10T15:29:35.032Z,12.9
2023-05-10T15:32:35.097Z,12.9
2023-05-10T15:35:35.057Z,12.8
2023-05-10T15:38:35.058Z,12.7
2023-05-10T15:41:35.066Z,12.7
2023-05-10T15:44:35.071Z,12.7
2023-05-10T15:47:35.101Z,12.8
2023-05-10T15:50:35.088Z,12.9
2023-05-10T15:53:35.098Z,13
2023-05-10T15:56:35.121Z,12.9
2023-05-10T15:59:35.116Z,12.8
2023-05-10T16:02:35.172Z,12.9
2023-05-10T16:05:35.141Z,13
2023-05-10T16:08:35.148Z,13
2023-05-10T16:11:35.155Z,13
2023-05-10T16:14:35.158Z,12.9
2023-05-10T16:17:35.214Z,12.8
2023-05-10T16:20:35.179Z,12.8
2023-05-10T16:23:35.200Z,12.7
2023-05-10T16:26:35.186Z,12.7
2023-05-10T16:29:35.202Z,12.7
2023-05-10T16:32:35.259Z,12.6
2023-05-10T16:35:35.214Z,12.7
2023-05-10T16:38:35.231Z,12.5
2023-05-10T16:41:35.239Z,12.6
2023-05-10T16:44:35.238Z,12.5
2023-05-10T16:47:35.253Z,12.5
2023-05-10T16:50:35.261Z,12.5
2023-05-10T16:53:35.266Z,12.4
2023-05-10T16:56:35.271Z,12.5
2023-05-10T16:59:35.291Z,12.5
2023-05-10T17:02:35.328Z,12.5
2023-05-10T17:05:35.312Z,12.5
2023-05-10T17:08:35.682Z,12.5
2023-05-10T17:11:35.335Z,12.5
2023-05-10T17:14:35.344Z,12.5
2023-05-10T17:17:35.385Z,12.5
2023-05-10T17:20:35.357Z,12.4
2023-05-10T17:23:35.409Z,12.4
2023-05-10T17:26:35.381Z,12.4
2023-05-10T17:29:35.389Z,12.4
2023-05-10T17:32:35.406Z,12.3
2023-05-10T17:35:35.413Z,12.3
2023-05-10T17:38:35.422Z,12.3
2023-05-10T17:41:35.431Z,12.3
2023-05-10T17:44:35.440Z,12.3
2023-05-10T17:47:35.468Z,12.4
2023-05-10T17:50:35.463Z,12.4
2023-05-10T17:53:35.470Z,12.5
2023-05-10T17:56:35.474Z,12.5
2023-05-10T17:59:35.486Z,12.5
2023-05-10T18:02:35.540Z,12.4
2023-05-10T18:05:35.675Z,12.2
2023-05-10T18:08:35.515Z,11.8
2023-05-10T18:11:35.534Z,11.7
2023-05-10T18:14:40.366Z,11.7
2023-05-10T18:17:35.573Z,11.7
2023-05-10T18:20:35.570Z,11.7
2023-05-10T18:23:35.589Z,11.7
2023-05-10T18:26:35.598Z,11.7
2023-05-10T18:29:35.607Z,11.7
2023-05-10T18:32:35.621Z,11.7
2023-05-10T18:35:35.620Z,11.7
2023-05-10T18:38:35.639Z,11.6
2023-05-10T18:41:35.645Z,11.6
2023-05-10T18:44:35.657Z,11.6
2023-05-10T18:47:35.698Z,11.6
2023-05-10T18:50:35.694Z,11.6
2023-05-10T18:53:35.712Z,11.6
2023-05-10T18:56:35.732Z,11.5
2023-05-10T18:59:35.728Z,11.5
2023-05-10T19:02:35.746Z,11.5
2023-05-10T19:05:35.746Z,11.5
2023-05-10T19:08:35.753Z,11.5
2023-05-10T19:11:35.764Z,11.5
2023-05-10T19:14:35.766Z,11.5
2023-05-10T19:17:35.831Z,11.4
2023-05-10T19:20:35.792Z,11.5
2023-05-10T19:23:35.801Z,11.5
2023-05-10T19:26:35.858Z,11.5
2023-05-10T19:29:35.867Z,11.5
2023-05-10T19:32:35.827Z,11.5
2023-05-10T19:35:35.832Z,11.5
2023-05-10T19:38:35.850Z,11.5
2023-05-10T19:41:35.842Z,11.6
2023-05-10T19:44:35.845Z,11.5
2023-05-10T19:47:35.864Z,11.5
2023-05-10T19:50:35.855Z,11.5
2023-05-10T19:53:35.860Z,11.5
2023-05-10T19:56:35.865Z,11.5
2023-05-10T19:59:35.870Z,11.5
2023-05-10T20:02:35.882Z,11.5
2023-05-10T20:05:35.865Z,11.5
2023-05-10T20:08:35.878Z,11.5
2023-05-10T20:11:35.877Z,11.4
2023-05-10T20:14:35.900Z,11.4
2023-05-10T20:17:35.921Z,11.4
2023-05-10T20:20:35.898Z,11.4
2023-05-10T20:23:35.902Z,11.5
2023-05-10T20:26:35.905Z,11.5
2023-05-10T20:29:35.932Z,11.5
2023-05-10T20:32:35.922Z,11.5
2023-05-10T20:35:35.925Z,11.4
2023-05-10T20:38:35.921Z,11.4
2023-05-10T20:41:35.926Z,11.4
2023-05-10T20:44:35.934Z,11.2
2023-05-10T20:47:35.962Z,11.2
2023-05-10T20:50:35.946Z,11.2
2023-05-10T20:53:35.970Z,11.1
2023-05-10T20:56:35.946Z,11.1
2023-05-10T20:59:35.947Z,11.2
2023-05-10T21:02:35.982Z,11.3
2023-05-10T21:05:35.972Z,11.2
2023-05-10T21:08:35.976Z,11.2
2023-05-10T21:11:36.192Z,11.1
2023-05-10T21:14:35.981Z,11
2023-05-10T21:17:36.001Z,10.9
2023-05-10T21:20:36.005Z,10.9
2023-05-10T21:23:36.004Z,10.9
2023-05-10T21:26:36.006Z,10.9
2023-05-10T21:29:36.010Z,10.9
2023-05-10T21:32:36.049Z,10.8
2023-05-10T21:35:36.049Z,10.8
2023-05-10T21:38:36.014Z,10.7
2023-05-10T21:41:36.022Z,10.7
2023-05-10T21:44:36.027Z,10.6
2023-05-10T21:47:36.043Z,10.6
2023-05-10T21:50:36.033Z,10.6
2023-05-10T21:53:36.044Z,10.6
2023-05-10T21:56:36.037Z,10.6
2023-05-10T21:59:36.044Z,10.7
2023-05-10T22:02:36.121Z,10.8
2023-05-10T22:05:36.049Z,10.8
2023-05-10T22:08:36.048Z,10.8
2023-05-10T22:11:36.056Z,10.8
2023-05-10T22:14:36.069Z,10.8
2023-05-10T22:17:36.071Z,10.9
2023-05-10T22:20:36.070Z,11
2023-05-10T22:23:36.073Z,11
2023-05-10T22:26:36.074Z,11.1
2023-05-10T22:29:36.105Z,11.1
2023-05-10T22:32:36.097Z,11.1
2023-05-10T22:35:36.094Z,11
2023-05-10T22:38:36.100Z,11
2023-05-10T22:41:36.103Z,10.9
2023-05-10T22:44:36.112Z,10.9
2023-05-10T22:47:36.122Z,10.9
2023-05-10T22:50:36.113Z,10.9
2023-05-10T22:53:36.118Z,10.9
2023-05-10T22:56:36.123Z,10.8
2023-05-10T22:59:36.125Z,10.9
2023-05-10T23:02:36.146Z,10.9
2023-05-10T23:05:36.126Z,10.9
2023-05-10T23:08:36.138Z,10.8
2023-05-10T23:11:36.131Z,10.9
2023-05-10T23:14:36.141Z,10.9
2023-05-10T23:17:36.184Z,11
2023-05-10T23:20:36.154Z,11.1
2023-05-10T23:23:36.156Z,11.2
2023-05-10T23:26:36.150Z,11.2
2023-05-10T23:29:36.155Z,11.2
2023-05-10T23:32:36.182Z,11.1
2023-05-10T23:35:36.165Z,11
2023-05-10T23:38:36.163Z,11.1
2023-05-10T23:41:36.166Z,11.1
2023-05-10T23:44:36.181Z,11.1
2023-05-10T23:47:36.203Z,11.1
2023-05-10T23:50:36.188Z,11
2023-05-10T23:53:36.193Z,11
2023-05-10T23:56:36.203Z,11
2023-05-10T23:59:36.205Z,11
